PLF040 EPKK-EPDE
Flight info
| Callsign | PLF040 |
|---|---|
| Flight time | 0h 40m |
| Altitude | 15000 |
| Route | POBOK DCT KURAV DCT ROMEG |
| Aircraft | C295/M-SDFGIRY/S |
Departure
| Time | 2026-04-17 06:19 |
|---|---|
| Airport | Kraków John Paul II International Airport (EPKK) |
Arrival
| Time | 2026-04-17 07:00 |
|---|---|
| Airport | Deblin Military Air Base (EPDE) |
| Time | Latitude | Longitude | Altitude | Speed | Heading |
|---|---|---|---|---|---|
| 2026-04-17 06:03 | 50.07517 | 19.78963 | 797 ft | 0 kts | 336° |
| 2026-04-17 06:14 | 50.07521 | 19.78960 | 796 ft | 3 kts | 336° |
| 2026-04-17 06:14 | 50.07550 | 19.78950 | 796 ft | 1 kts | 19° |
| 2026-04-17 06:15 | 50.07564 | 19.78981 | 796 ft | 4 kts | 58° |
| 2026-04-17 06:15 | 50.07576 | 19.79031 | 796 ft | 8 kts | 67° |
| 2026-04-17 06:15 | 50.07605 | 19.79131 | 796 ft | 12 kts | 66° |
| 2026-04-17 06:15 | 50.07630 | 19.79270 | 796 ft | 14 kts | 79° |
| 2026-04-17 06:16 | 50.07651 | 19.79425 | 796 ft | 15 kts | 78° |
| 2026-04-17 06:16 | 50.07674 | 19.79589 | 796 ft | 16 kts | 77° |
| 2026-04-17 06:16 | 50.07697 | 19.79759 | 796 ft | 16 kts | 78° |
| 2026-04-17 06:16 | 50.07719 | 19.79929 | 796 ft | 17 kts | 79° |
| 2026-04-17 06:17 | 50.07746 | 19.80103 | 797 ft | 16 kts | 77° |
| 2026-04-17 06:17 | 50.07767 | 19.80279 | 796 ft | 13 kts | 78° |
| 2026-04-17 06:17 | 50.07829 | 19.80341 | 797 ft | 13 kts | 346° |
| 2026-04-17 06:17 | 50.07921 | 19.80307 | 797 ft | 14 kts | 345° |
| 2026-04-17 06:18 | 50.08001 | 19.80266 | 796 ft | 10 kts | 319° |
| 2026-04-17 06:18 | 50.08009 | 19.80170 | 797 ft | 9 kts | 257° |
| 2026-04-17 06:18 | 50.07995 | 19.80083 | 797 ft | 9 kts | 257° |
| 2026-04-17 06:18 | 50.07960 | 19.79830 | 796 ft | 48 kts | 258° |
| 2026-04-17 06:19 | 50.07831 | 19.78920 | 801 ft | 118 kts | 258° |
| 2026-04-17 06:19 | 50.07629 | 19.77502 | 1010 ft | 144 kts | 256° |
| 2026-04-17 06:19 | 50.07374 | 19.75892 | 1292 ft | 165 kts | 255° |
| 2026-04-17 06:19 | 50.07128 | 19.74150 | 2041 ft | 158 kts | 261° |
| 2026-04-17 06:20 | 50.06909 | 19.72493 | 2797 ft | 152 kts | 261° |
| 2026-04-17 06:20 | 50.06685 | 19.70959 | 3548 ft | 143 kts | 263° |
| 2026-04-17 06:20 | 50.06480 | 19.69463 | 4173 ft | 143 kts | 263° |
| 2026-04-17 06:20 | 50.06268 | 19.67941 | 4861 ft | 145 kts | 263° |
| 2026-04-17 06:21 | 50.06075 | 19.66396 | 5550 ft | 147 kts | 264° |
| 2026-04-17 06:21 | 50.05969 | 19.64722 | 5919 ft | 163 kts | 287° |
| 2026-04-17 06:21 | 50.06690 | 19.63377 | 6344 ft | 171 kts | 338° |
| 2026-04-17 06:21 | 50.07844 | 19.62884 | 6949 ft | 173 kts | 347° |
| 2026-04-17 06:22 | 50.09011 | 19.62520 | 7685 ft | 166 kts | 348° |
| 2026-04-17 06:22 | 50.09754 | 19.62307 | 8135 ft | 170 kts | 348° |
| 2026-04-17 06:22 | 50.11036 | 19.61933 | 8073 ft | 203 kts | 348° |
| 2026-04-17 06:22 | 50.13020 | 19.61342 | 8061 ft | 224 kts | 350° |
| 2026-04-17 06:23 | 50.14568 | 19.61737 | 8034 ft | 242 kts | 24° |
| 2026-04-17 06:23 | 50.15924 | 19.63389 | 8025 ft | 253 kts | 39° |
| 2026-04-17 06:23 | 50.17209 | 19.65292 | 8147 ft | 254 kts | 40° |
| 2026-04-17 06:23 | 50.18065 | 19.66572 | 8346 ft | 250 kts | 39° |
| 2026-04-17 06:24 | 50.19342 | 19.68425 | 8434 ft | 253 kts | 38° |
| 2026-04-17 06:24 | 50.20648 | 19.70232 | 8487 ft | 255 kts | 37° |
| 2026-04-17 06:24 | 50.21993 | 19.72059 | 8534 ft | 257 kts | 37° |
| 2026-04-17 06:24 | 50.23346 | 19.73900 | 8557 ft | 259 kts | 37° |
| 2026-04-17 06:25 | 50.24708 | 19.75756 | 8609 ft | 260 kts | 36° |
| 2026-04-17 06:25 | 50.26075 | 19.77613 | 8645 ft | 260 kts | 37° |
| 2026-04-17 06:25 | 50.27409 | 19.79435 | 8679 ft | 260 kts | 36° |
| 2026-04-17 06:25 | 50.28801 | 19.81338 | 8702 ft | 260 kts | 36° |
| 2026-04-17 06:26 | 50.30171 | 19.83207 | 8737 ft | 261 kts | 36° |
| 2026-04-17 06:26 | 50.31513 | 19.85045 | 8892 ft | 255 kts | 36° |
| 2026-04-17 06:26 | 50.32805 | 19.86816 | 9475 ft | 237 kts | 35° |
| 2026-04-17 06:26 | 50.33996 | 19.88448 | 10242 ft | 219 kts | 34° |
| 2026-04-17 06:27 | 50.35103 | 19.89971 | 10912 ft | 206 kts | 34° |
| 2026-04-17 06:27 | 50.36151 | 19.91422 | 11602 ft | 197 kts | 33° |
| 2026-04-17 06:27 | 50.37178 | 19.92816 | 12221 ft | 195 kts | 32° |
| 2026-04-17 06:27 | 50.38213 | 19.94228 | 12754 ft | 197 kts | 32° |
| 2026-04-17 06:28 | 50.39255 | 19.95656 | 13309 ft | 200 kts | 32° |
| 2026-04-17 06:28 | 50.40295 | 19.97080 | 13846 ft | 202 kts | 32° |
| 2026-04-17 06:28 | 50.41362 | 19.98545 | 14340 ft | 204 kts | 32° |
| 2026-04-17 06:28 | 50.42435 | 20.00020 | 14795 ft | 208 kts | 32° |
| 2026-04-17 06:29 | 50.43563 | 20.01565 | 14988 ft | 224 kts | 33° |
| 2026-04-17 06:29 | 50.44770 | 20.03225 | 15088 ft | 238 kts | 33° |
| 2026-04-17 06:29 | 50.46050 | 20.04993 | 15137 ft | 251 kts | 34° |
| 2026-04-17 06:29 | 50.47390 | 20.06836 | 15166 ft | 261 kts | 34° |
| 2026-04-17 06:30 | 50.48770 | 20.08746 | 15172 ft | 267 kts | 34° |
| 2026-04-17 06:30 | 50.50177 | 20.10689 | 15174 ft | 271 kts | 34° |
| 2026-04-17 06:30 | 50.51598 | 20.12658 | 15175 ft | 274 kts | 34° |
| 2026-04-17 06:30 | 50.53019 | 20.14621 | 15178 ft | 276 kts | 34° |
| 2026-04-17 06:31 | 50.54463 | 20.16623 | 15178 ft | 277 kts | 34° |
| 2026-04-17 06:31 | 50.55913 | 20.18635 | 15180 ft | 278 kts | 34° |
| 2026-04-17 06:31 | 50.57366 | 20.20651 | 15178 ft | 279 kts | 34° |
| 2026-04-17 06:31 | 50.58893 | 20.22469 | 15183 ft | 270 kts | 22° |
| 2026-04-17 06:32 | 50.60578 | 20.23692 | 15183 ft | 266 kts | 16° |
| 2026-04-17 06:32 | 50.62298 | 20.24781 | 15181 ft | 266 kts | 15° |
| 2026-04-17 06:32 | 50.64020 | 20.25896 | 15182 ft | 268 kts | 17° |
| 2026-04-17 06:32 | 50.65727 | 20.27077 | 15181 ft | 269 kts | 18° |
| 2026-04-17 06:33 | 50.67429 | 20.28303 | 15181 ft | 269 kts | 18° |
| 2026-04-17 06:33 | 50.69135 | 20.29531 | 15183 ft | 269 kts | 18° |
| 2026-04-17 06:33 | 50.70819 | 20.30735 | 15182 ft | 270 kts | 18° |
| 2026-04-17 06:33 | 50.72527 | 20.31953 | 15179 ft | 270 kts | 18° |
| 2026-04-17 06:34 | 50.74237 | 20.33173 | 15182 ft | 269 kts | 18° |
| 2026-04-17 06:34 | 50.75947 | 20.34394 | 15184 ft | 269 kts | 18° |
| 2026-04-17 06:34 | 50.77658 | 20.35615 | 15179 ft | 269 kts | 18° |
| 2026-04-17 06:34 | 50.79367 | 20.36837 | 15177 ft | 269 kts | 18° |
| 2026-04-17 06:35 | 50.81072 | 20.38057 | 15176 ft | 269 kts | 18° |
| 2026-04-17 06:35 | 50.82775 | 20.39278 | 15183 ft | 269 kts | 18° |
| 2026-04-17 06:35 | 50.84480 | 20.40499 | 15180 ft | 269 kts | 18° |
| 2026-04-17 06:35 | 50.86186 | 20.41722 | 15182 ft | 269 kts | 18° |
| 2026-04-17 06:36 | 50.87888 | 20.42944 | 15180 ft | 269 kts | 18° |
| 2026-04-17 06:36 | 50.89591 | 20.44168 | 15181 ft | 269 kts | 18° |
| 2026-04-17 06:36 | 50.91272 | 20.45377 | 15175 ft | 268 kts | 18° |
| 2026-04-17 06:36 | 50.92974 | 20.46601 | 15188 ft | 268 kts | 18° |
| 2026-04-17 06:37 | 50.94674 | 20.47825 | 15184 ft | 269 kts | 18° |
| 2026-04-17 06:37 | 50.96373 | 20.49047 | 15177 ft | 269 kts | 18° |
| 2026-04-17 06:37 | 50.98074 | 20.50274 | 15181 ft | 268 kts | 18° |
| 2026-04-17 06:37 | 50.99775 | 20.51499 | 15174 ft | 269 kts | 18° |
| 2026-04-17 06:38 | 51.01475 | 20.52728 | 15180 ft | 268 kts | 18° |
| 2026-04-17 06:38 | 51.03174 | 20.53956 | 15184 ft | 268 kts | 18° |
| 2026-04-17 06:38 | 51.04872 | 20.55185 | 15184 ft | 268 kts | 18° |
| 2026-04-17 06:38 | 51.06573 | 20.56415 | 15182 ft | 268 kts | 18° |
| 2026-04-17 06:39 | 51.08270 | 20.57646 | 15184 ft | 268 kts | 18° |
| 2026-04-17 06:39 | 51.09970 | 20.58878 | 15182 ft | 268 kts | 18° |
| 2026-04-17 06:39 | 51.11666 | 20.60107 | 15176 ft | 268 kts | 18° |
| 2026-04-17 06:39 | 51.13361 | 20.61338 | 15183 ft | 268 kts | 18° |
| 2026-04-17 06:40 | 51.15057 | 20.62569 | 15182 ft | 268 kts | 18° |
| 2026-04-17 06:40 | 51.16727 | 20.63783 | 15182 ft | 267 kts | 18° |
| 2026-04-17 06:40 | 51.18444 | 20.65033 | 15181 ft | 268 kts | 18° |
| 2026-04-17 06:40 | 51.20120 | 20.66254 | 15179 ft | 268 kts | 18° |
| 2026-04-17 06:41 | 51.21817 | 20.67493 | 15181 ft | 268 kts | 18° |
| 2026-04-17 06:41 | 51.23515 | 20.68731 | 15181 ft | 268 kts | 18° |
| 2026-04-17 06:41 | 51.25217 | 20.69974 | 15185 ft | 268 kts | 18° |
| 2026-04-17 06:41 | 51.26918 | 20.71217 | 15179 ft | 269 kts | 18° |
| 2026-04-17 06:42 | 51.28616 | 20.72458 | 15175 ft | 268 kts | 18° |
| 2026-04-17 06:42 | 51.30318 | 20.73702 | 15184 ft | 267 kts | 18° |
| 2026-04-17 06:42 | 51.31805 | 20.75490 | 15169 ft | 279 kts | 44° |
| 2026-04-17 06:42 | 51.32820 | 20.78193 | 15182 ft | 288 kts | 57° |
| 2026-04-17 06:43 | 51.33652 | 20.81132 | 15187 ft | 290 kts | 60° |
| 2026-04-17 06:43 | 51.34452 | 20.84102 | 15187 ft | 291 kts | 60° |
| 2026-04-17 06:43 | 51.35266 | 20.87070 | 15188 ft | 291 kts | 59° |
| 2026-04-17 06:43 | 51.36104 | 20.89975 | 15180 ft | 290 kts | 58° |
| 2026-04-17 06:44 | 51.36970 | 20.92899 | 15184 ft | 290 kts | 58° |
| 2026-04-17 06:44 | 51.37848 | 20.95801 | 15188 ft | 290 kts | 57° |
| 2026-04-17 06:44 | 51.38732 | 20.98701 | 15184 ft | 290 kts | 57° |
| 2026-04-17 06:44 | 51.39600 | 21.01622 | 15185 ft | 290 kts | 58° |
| 2026-04-17 06:45 | 51.40463 | 21.04549 | 15185 ft | 290 kts | 58° |
| 2026-04-17 06:45 | 51.41323 | 21.07479 | 15183 ft | 291 kts | 58° |
| 2026-04-17 06:45 | 51.42185 | 21.10409 | 15185 ft | 291 kts | 58° |
| 2026-04-17 06:45 | 51.43045 | 21.13343 | 15181 ft | 291 kts | 58° |
| 2026-04-17 06:46 | 51.43904 | 21.16282 | 15189 ft | 291 kts | 58° |
| 2026-04-17 06:46 | 51.44763 | 21.19219 | 15188 ft | 292 kts | 58° |
| 2026-04-17 06:46 | 51.45622 | 21.22163 | 14895 ft | 301 kts | 58° |
| 2026-04-17 06:46 | 51.46523 | 21.25258 | 14492 ft | 311 kts | 58° |
| 2026-04-17 06:47 | 51.47439 | 21.28391 | 14271 ft | 307 kts | 58° |
| 2026-04-17 06:47 | 51.48313 | 21.31400 | 13941 ft | 290 kts | 58° |
| 2026-04-17 06:47 | 51.49154 | 21.34298 | 13508 ft | 281 kts | 58° |
| 2026-04-17 06:47 | 51.49970 | 21.37108 | 13086 ft | 275 kts | 58° |
| 2026-04-17 06:48 | 51.50770 | 21.39868 | 12675 ft | 270 kts | 58° |
| 2026-04-17 06:48 | 51.51555 | 21.42574 | 12291 ft | 266 kts | 58° |
| 2026-04-17 06:48 | 51.52327 | 21.45249 | 11904 ft | 262 kts | 58° |
| 2026-04-17 06:48 | 51.53092 | 21.47895 | 11534 ft | 260 kts | 58° |
| 2026-04-17 06:49 | 51.53840 | 21.50489 | 11161 ft | 258 kts | 58° |
| 2026-04-17 06:49 | 51.54531 | 21.53123 | 10790 ft | 257 kts | 69° |
| 2026-04-17 06:49 | 51.54574 | 21.56043 | 10434 ft | 266 kts | 91° |
| 2026-04-17 06:49 | 51.54229 | 21.58994 | 10065 ft | 270 kts | 98° |
| 2026-04-17 06:50 | 51.53783 | 21.61923 | 9669 ft | 270 kts | 99° |
| 2026-04-17 06:50 | 51.53192 | 21.64770 | 9271 ft | 268 kts | 112° |
| 2026-04-17 06:50 | 51.52356 | 21.67459 | 8883 ft | 269 kts | 114° |
| 2026-04-17 06:50 | 51.51496 | 21.70105 | 8573 ft | 267 kts | 115° |
| 2026-04-17 06:51 | 51.50629 | 21.72734 | 8238 ft | 266 kts | 115° |
| 2026-04-17 06:51 | 51.49772 | 21.75321 | 7906 ft | 265 kts | 116° |
| 2026-04-17 06:51 | 51.48904 | 21.77934 | 7586 ft | 265 kts | 116° |
| 2026-04-17 06:51 | 51.48029 | 21.80578 | 7257 ft | 265 kts | 116° |
| 2026-04-17 06:52 | 51.47181 | 21.83156 | 6935 ft | 265 kts | 116° |
| 2026-04-17 06:52 | 51.46325 | 21.85769 | 6598 ft | 264 kts | 116° |
| 2026-04-17 06:52 | 51.45471 | 21.88376 | 6277 ft | 264 kts | 116° |
| 2026-04-17 06:52 | 51.44619 | 21.90972 | 5928 ft | 263 kts | 115° |
| 2026-04-17 06:53 | 51.43770 | 21.93551 | 5592 ft | 262 kts | 116° |
| 2026-04-17 06:53 | 51.42921 | 21.96131 | 5252 ft | 260 kts | 116° |
| 2026-04-17 06:53 | 51.42079 | 21.98693 | 4959 ft | 259 kts | 116° |
| 2026-04-17 06:53 | 51.41238 | 22.01240 | 4714 ft | 257 kts | 116° |
| 2026-04-17 06:54 | 51.40405 | 22.03763 | 4409 ft | 255 kts | 115° |
| 2026-04-17 06:54 | 51.39937 | 22.06429 | 4077 ft | 248 kts | 85° |
| 2026-04-17 06:54 | 51.40406 | 22.08991 | 3746 ft | 236 kts | 58° |
| 2026-04-17 06:54 | 51.41194 | 22.11279 | 3485 ft | 233 kts | 54° |
| 2026-04-17 06:55 | 51.42318 | 22.13003 | 3226 ft | 222 kts | 20° |
| 2026-04-17 06:55 | 51.43747 | 22.13636 | 3064 ft | 209 kts | 9° |
| 2026-04-17 06:55 | 51.45153 | 22.14162 | 2778 ft | 206 kts | 8° |
| 2026-04-17 06:55 | 51.46504 | 22.14276 | 2613 ft | 187 kts | 341° |
| 2026-04-17 06:56 | 51.47449 | 22.13008 | 2574 ft | 176 kts | 300° |
| 2026-04-17 06:56 | 51.47948 | 22.11311 | 2526 ft | 168 kts | 297° |
| 2026-04-17 06:56 | 51.48446 | 22.09636 | 2580 ft | 165 kts | 297° |
| 2026-04-17 06:56 | 51.48922 | 22.07973 | 2541 ft | 164 kts | 297° |
| 2026-04-17 06:57 | 51.49349 | 22.06302 | 2548 ft | 159 kts | 293° |
| 2026-04-17 06:57 | 51.49787 | 22.04605 | 2400 ft | 173 kts | 297° |
| 2026-04-17 06:57 | 51.50316 | 22.02790 | 2201 ft | 184 kts | 298° |
| 2026-04-17 06:57 | 51.50855 | 22.00986 | 1909 ft | 168 kts | 298° |
| 2026-04-17 06:58 | 51.51303 | 21.99464 | 1709 ft | 134 kts | 298° |
| 2026-04-17 06:58 | 51.51731 | 21.98256 | 1525 ft | 122 kts | 304° |
| 2026-04-17 06:58 | 51.52189 | 21.97079 | 1332 ft | 126 kts | 304° |
| 2026-04-17 06:58 | 51.52636 | 21.95902 | 1163 ft | 122 kts | 303° |
| 2026-04-17 06:59 | 51.53076 | 21.94758 | 993 ft | 120 kts | 302° |
| 2026-04-17 06:59 | 51.53487 | 21.93627 | 839 ft | 117 kts | 301° |
| 2026-04-17 06:59 | 51.53885 | 21.92515 | 674 ft | 114 kts | 301° |
| 2026-04-17 06:59 | 51.54273 | 21.91425 | 540 ft | 112 kts | 302° |
| 2026-04-17 07:00 | 51.54673 | 21.90349 | 408 ft | 106 kts | 302° |
| 2026-04-17 07:00 | 51.54978 | 21.89572 | 380 ft | 35 kts | 301° |
| 2026-04-17 07:00 | 51.55091 | 21.89268 | 381 ft | 27 kts | 297° |
| 2026-04-17 07:00 | 51.55171 | 21.89055 | 383 ft | 18 kts | 301° |
| 2026-04-17 07:01 | 51.55223 | 21.88914 | 384 ft | 12 kts | 301° |
| 2026-04-17 07:01 | 51.55259 | 21.88820 | 384 ft | 9 kts | 299° |
| 2026-04-17 07:01 | 51.55280 | 21.88729 | 383 ft | 9 kts | 270° |
| 2026-04-17 07:01 | 51.55236 | 21.88653 | 383 ft | 12 kts | 211° |
| 2026-04-17 07:02 | 51.55152 | 21.88572 | 382 ft | 16 kts | 207° |
| 2026-04-17 07:02 | 51.55083 | 21.88615 | 382 ft | 14 kts | 114° |
| 2026-04-17 07:02 | 51.55030 | 21.88765 | 382 ft | 17 kts | 119° |
| 2026-04-17 07:02 | 51.54965 | 21.88941 | 382 ft | 19 kts | 126° |
| 2026-04-17 07:03 | 51.54890 | 21.89136 | 382 ft | 21 kts | 125° |
| 2026-04-17 07:03 | 51.54816 | 21.89336 | 382 ft | 21 kts | 121° |
| 2026-04-17 07:03 | 51.54742 | 21.89510 | 382 ft | 15 kts | 155° |
| 2026-04-17 07:03 | 51.54710 | 21.89485 | 382 ft | 7 kts | 216° |
| 2026-04-17 07:04 | 51.54680 | 21.89488 | 382 ft | 4 kts | 123° |
| 2026-04-17 07:04 | 51.54682 | 21.89528 | 382 ft | 3 kts | 45° |
| 2026-04-17 07:04 | 51.54695 | 21.89539 | 382 ft | 0 kts | 27° |